Archival Weather

Republic

Farmingdale, New York (KFRG)

Report from: Friday, February 23, 2024 2:53 PM EST
Current time: Monday, June 24, 2024 5:20 AM EDT

Current weather – Weather history – Daily summaries
Weather forecast

Temperature6.7°C (44.1°F)
Wind chill4.2°C (39.5°F)
Dew point3.9°C (39.0°F)
Winds 7 kts (3.6 m/s, 8.1 mph) North (360°)
Visibility10 mi. (16.1 km)
Clouds Ceiling: Overcast 3,600 ft. (1,097 m)
Altimeter29.45 in.Hg (997 mB)
Relative humidity82 %
Density altitude-331 ft. (-101 m)
Sea-level pressure99.7 kPa (997 mB, 29.45 in.Hg)
Remarks Automated weather observing station without precipitation discriminator
Flight conditions Visual Meteorological Conditions
Raw dataKFRG 231953Z 36007KT 10SM OVC036 07/04 A2945 RMK AO1 SLP972 T00670039
An error has occurred. This application may no longer respond until reloaded. Reload 🗙